Time;durP1;ratioP1;P1;durP2;ratioP2;P2;SDS_P1;SDS_P2;PMS_P1;PMS_P2;Temp;Humidity;BMP_temperature;BMP_pressure;BME280_temperature;BME280_humidity;BME280_pressure;Samples;Min_cycle;Max_cycle;Signal;HPM_P1;HPM_P2
2021/12/20 00:01:52;;;;;;;;;;;;;;;-1.44;100.00;102443.13;5059054;28;20399;-77
2021/12/20 00:04:19;;;;;;;;;;;;;;;-1.46;100.00;102441.47;5054179;28;19919;-78
2021/12/20 00:06:44;;;;;;;;;;;;;;;-1.35;100.00;102431.84;5082336;28;19919;-78
2021/12/20 00:09:10;;;;;;;;;;;;;;;-1.40;100.00;102441.34;5057647;28;19920;-76
2021/12/20 00:11:35;;;;;;;;;;;;;;;-1.35;100.00;102431.00;5053342;28;19969;-76
2021/12/20 00:14:00;;;;;;;;;;;;;;;-1.34;100.00;102438.66;5058855;28;19916;-77
2021/12/20 00:16:26;;;;;;;;;;;;;;;-1.27;100.00;102444.56;5057316;28;20465;-77
2021/12/20 00:18:52;;;;;;;;;;;;;;;-1.23;100.00;102449.63;5054957;28;19923;-77
2021/12/20 00:21:18;;;;;;;;;;;;;;;-1.25;100.00;102442.81;5052947;28;20690;-77
2021/12/20 00:23:43;;;;;;;;;;;;;;;-1.21;100.00;102452.16;5055806;28;19922;-78
2021/12/20 00:26:09;;;;;;;;;;;;;;;-1.22;100.00;102438.44;5058635;28;19916;-77
2021/12/20 00:28:35;;;;;;;;;;;;;;;-1.15;100.00;102446.88;5075167;28;20490;-77
2021/12/20 00:31:00;;;;;;;;;;;;;;;-1.10;100.00;102449.41;5074719;28;20022;-77
2021/12/20 00:33:28;;;;;;;;;;;;;;;-1.21;100.00;102441.88;5057566;28;20416;-78
2021/12/20 00:35:53;;;;;;;;;;;;;;;-1.27;100.00;102447.13;5073215;28;20656;-76
2021/12/20 00:41:03;;;;;;;;;;;;;;;-1.34;100.00;102455.84;5074230;28;19997;-76
2021/12/20 00:43:29;;;;;;;;;;;;;;;-1.40;100.00;102455.06;5057697;28;19916;-76
2021/12/20 00:45:55;;;;;;;;;;;;;;;-1.43;100.00;102455.16;5073768;28;19912;-77
2021/12/20 00:48:20;;;;;;;;;;;;;;;-1.42;100.00;102453.41;5058592;28;19920;-77
2021/12/20 00:50:46;;;;;;;;;;;;;;;-1.43;100.00;102464.56;5054734;28;19948;-76
2021/12/20 00:53:12;;;;;;;;;;;;;;;-1.52;100.00;102462.19;5067163;28;19938;-76
2021/12/20 00:55:38;;;;;;;;;;;;;;;-1.56;100.00;102471.69;5050765;28;19912;-76
2021/12/20 00:58:04;;;;;;;;;;;;;;;-1.53;100.00;102475.91;5070211;28;20720;-77
2021/12/20 01:00:40;;;;;;;;;;;;;;;-1.57;100.00;102488.81;5058792;28;20635;-76
2021/12/20 01:03:07;;;;;;;;;;;;;;;-1.56;100.00;102474.25;5057290;28;19916;-76
2021/12/20 01:05:33;;;;;;;;;;;;;;;-1.53;100.00;102470.75;5050633;28;19920;-77
2021/12/20 01:08:01;;;;;;;;;;;;;;;-1.57;100.00;102475.94;5038114;28;20053;-77
2021/12/20 01:10:29;;;;;;;;;;;;;;;-1.57;100.00;102475.94;5086934;28;19916;-77
2021/12/20 01:12:55;;;;;;;;;;;;;;;-1.49;100.00;102473.25;5055363;28;19935;-77
2021/12/20 01:15:24;;;;;;;;;;;;;;;-1.56;100.00;102479.41;5073183;28;19926;-77
2021/12/20 01:17:50;;;;;;;;;;;;;;;-1.59;100.00;102484.59;5057675;28;19916;-77
2021/12/20 01:20:15;;;;;;;;;;;;;;;-1.61;100.00;102476.03;5069615;28;19919;-76
2021/12/20 01:22:42;;;;;;;;;;;;;;;-1.55;100.00;102478.50;5057950;28;19938;-77
2021/12/20 01:25:08;;;;;;;;;;;;;;;-1.55;100.00;102483.66;5055641;28;19912;-77
2021/12/20 01:27:33;;;;;;;;;;;;;;;-1.61;100.00;102481.19;5081656;28;19976;-78
2021/12/20 01:29:59;;;;;;;;;;;;;;;-1.62;100.00;102487.19;5055602;28;20301;-77
2021/12/20 01:32:24;;;;;;;;;;;;;;;-1.67;100.00;102471.84;5070772;28;19985;-76
2021/12/20 01:34:50;;;;;;;;;;;;;;;-1.76;100.00;102474.56;5073491;28;19916;-76
2021/12/20 01:37:15;;;;;;;;;;;;;;;-1.77;100.00;102484.00;5085934;28;20010;-77
2021/12/20 01:39:42;;;;;;;;;;;;;;;-1.80;100.00;102490.94;5052686;28;19934;-77
2021/12/20 01:42:07;;;;;;;;;;;;;;;-1.80;100.00;102490.94;5039878;28;19916;-78
2021/12/20 01:44:33;;;;;;;;;;;;;;;-1.84;100.00;102486.72;5058700;28;20858;-77
2021/12/20 01:47:01;;;;;;;;;;;;;;;-1.89;100.00;102484.19;5061828;28;19916;-78
2021/12/20 01:49:38;;;;;;;;;;;;;;;-1.83;100.00;102484.13;5044555;28;19916;-76
2021/12/20 01:52:12;;;;;;;;;;;;;;;-1.80;100.00;102483.22;5046469;28;19976;-78
2021/12/20 01:54:38;;;;;;;;;;;;;;;-1.60;100.00;102472.56;5047078;28;19951;-78
2021/12/20 01:57:03;;;;;;;;;;;;;;;-1.58;100.00;102482.00;5094226;28;19951;-77
2021/12/20 01:59:29;;;;;;;;;;;;;;;-1.67;100.00;102471.84;5072694;28;20448;-78
2021/12/20 02:01:55;;;;;;;;;;;;;;;-1.72;100.00;102467.66;5059254;28;19915;-79
2021/12/20 02:04:21;;;;;;;;;;;;;;;-1.77;100.00;102472.88;5041002;28;19966;-77
2021/12/20 02:06:48;;;;;;;;;;;;;;;-1.80;100.00;102475.50;5041711;28;19912;-77
2021/12/20 02:09:15;;;;;;;;;;;;;;;-1.84;100.00;102461.00;5055835;28;20405;-78
2021/12/20 02:11:41;;;;;;;;;;;;;;;-1.84;100.00;102459.25;5057675;28;20386;-78
2021/12/20 02:14:07;;;;;;;;;;;;;;;-1.84;100.00;102471.28;5070242;28;20038;-78
2021/12/20 02:16:34;;;;;;;;;;;;;;;-1.85;100.00;102469.56;5069449;28;19923;-77
2021/12/20 02:19:00;;;;;;;;;;;;;;;-1.89;100.00;102475.63;5073792;28;19916;-78
2021/12/20 02:21:26;;;;;;;;;;;;;;;-1.97;100.00;102462.91;5072741;28;19912;-78
2021/12/20 02:23:51;;;;;;;;;;;;;;;-1.95;100.00;102463.72;5068887;28;19923;-77
2021/12/20 02:26:19;;;;;;;;;;;;;;;-1.94;100.00;102454.28;5052855;28;19992;-77
2021/12/20 02:28:47;;;;;;;;;;;;;;;-1.94;100.00;102462.00;5072164;28;20457;-77
2021/12/20 02:38:58;;;;;;;;;;;;;;;-1.93;100.00;102466.28;5065655;28;19922;-78
2021/12/20 02:41:28;;;;;;;;;;;;;;;-1.89;100.00;102460.19;5071136;28;19920;-80
2021/12/20 02:43:56;;;;;;;;;;;;;;;-1.88;100.00;102474.78;5055835;28;19916;-77
2021/12/20 02:49:02;;;;;;;;;;;;;;;-1.89;100.00;102480.78;5072703;28;20011;-77
2021/12/20 02:51:27;;;;;;;;;;;;;;;-1.90;100.00;102472.22;5065572;28;19916;-76
2021/12/20 02:53:54;;;;;;;;;;;;;;;-1.94;100.00;102459.41;5055349;28;19983;-77
2021/12/20 02:56:19;;;;;;;;;;;;;;;-1.96;100.00;102475.75;5072718;28;19916;-76
2021/12/20 02:58:45;;;;;;;;;;;;;;;-1.99;100.00;102468.06;5086999;28;19923;-77
2021/12/20 03:01:10;;;;;;;;;;;;;;;-1.94;100.00;102470.56;5070493;28;19916;-79
2021/12/20 03:03:36;;;;;;;;;;;;;;;-1.98;100.00;102463.75;5071856;28;19915;-76
2021/12/20 03:06:18;;;;;;;;;;;;;;;-2.05;100.00;102463.00;5055399;28;19957;-79
2021/12/20 03:08:47;;;;;;;;;;;;;;;-2.05;100.00;102465.59;5034668;28;19923;-77
2021/12/20 03:11:12;;;;;;;;;;;;;;;-2.02;100.00;102470.66;5067994;28;20341;-78
2021/12/20 03:13:38;;;;;;;;;;;;;;;-2.06;100.00;102470.75;5074473;28;19961;-79
2021/12/20 03:16:04;;;;;;;;;;;;;;;-2.01;100.00;102474.94;5089529;28;20044;-77
2021/12/20 03:18:30;;;;;;;;;;;;;;;-2.03;100.00;102476.69;5077464;28;19916;-77
2021/12/20 03:20:55;;;;;;;;;;;;;;;-1.97;100.00;102476.59;5077472;28;19965;-76
2021/12/20 03:23:21;;;;;;;;;;;;;;;-1.99;100.00;102462.91;5052428;28;19942;-78
2021/12/20 03:25:46;;;;;;;;;;;;;;;-2.03;100.00;102466.41;5075317;28;20010;-78
2021/12/20 03:28:12;;;;;;;;;;;;;;;-1.90;100.00;102472.22;5074704;28;19962;-78
2021/12/20 03:30:37;;;;;;;;;;;;;;;-1.99;100.00;102474.94;5073713;28;19983;-78
2021/12/20 03:33:03;;;;;;;;;;;;;;;-1.87;100.00;102479.03;5077954;28;20324;-78
2021/12/20 03:35:28;;;;;;;;;;;;;;;-1.81;100.00;102458.34;5039087;28;19916;-77
2021/12/20 03:37:54;;;;;;;;;;;;;;;-1.87;100.00;102471.31;5075106;28;19912;-77
2021/12/20 03:40:19;;;;;;;;;;;;;;;-1.80;100.00;102485.78;5059631;28;19908;-77
2021/12/20 03:42:46;;;;;;;;;;;;;;;-1.57;100.00;102477.69;5076334;28;19987;-76
2021/12/20 03:45:13;;;;;;;;;;;;;;;-1.62;100.00;102470.06;5058464;28;19920;-77
2021/12/20 03:47:40;;;;;;;;;;;;;;;-1.72;100.00;102467.66;5084124;28;19923;-76
2021/12/20 03:50:05;;;;;;;;;;;;;;;-1.83;100.00;102478.09;5075981;28;19915;-78
2021/12/20 03:52:31;;;;;;;;;;;;;;;-1.90;100.00;102466.22;5069626;28;20038;-76
2021/12/20 03:54:56;;;;;;;;;;;;;;;-1.97;100.00;102468.03;5057107;28;19916;-77
2021/12/20 03:57:21;;;;;;;;;;;;;;;-2.01;100.00;102468.97;5059066;28;19929;-80
2021/12/20 03:59:48;;;;;;;;;;;;;;;-2.06;100.00;102469.03;5047423;28;19923;-78
2021/12/20 04:02:17;;;;;;;;;;;;;;;-2.11;100.00;102463.13;5057779;28;19916;-78
2021/12/20 04:04:43;;;;;;;;;;;;;;;-2.02;100.00;102467.25;5093230;28;19916;-78
2021/12/20 04:07:08;;;;;;;;;;;;;;;-1.95;100.00;102461.16;5042758;28;20022;-76
2021/12/20 04:09:34;;;;;;;;;;;;;;;-1.98;100.00;102463.75;5073620;28;20018;-78
2021/12/20 04:11:59;;;;;;;;;;;;;;;-2.09;100.00;102466.50;5059296;28;19972;-77
2021/12/20 04:14:25;;;;;;;;;;;;;;;-1.99;100.00;102468.06;5072900;28;19934;-78
2021/12/20 04:16:50;;;;;;;;;;;;;;;-2.01;100.00;102480.09;5075248;28;19943;-78
2021/12/20 04:19:16;;;;;;;;;;;;;;;-1.94;100.00;102480.88;5075188;28;20342;-78
2021/12/20 04:21:41;;;;;;;;;;;;;;;-1.80;100.00;102483.22;5074134;28;19923;-78
2021/12/20 04:24:07;;;;;;;;;;;;;;;-1.86;100.00;102488.47;5072981;28;20649;-78
2021/12/20 04:26:32;;;;;;;;;;;;;;;-1.82;100.00;102484.97;5058469;28;19962;-77
2021/12/20 04:28:58;;;;;;;;;;;;;;;-1.87;100.00;102481.59;5051750;28;19916;-77
2021/12/20 04:31:24;;;;;;;;;;;;;;;-1.89;100.00;102478.22;5093833;28;19916;-78
2021/12/20 04:33:50;;;;;;;;;;;;;;;-1.90;100.00;102481.63;5080696;28;20003;-77
2021/12/20 04:36:16;;;;;;;;;;;;;;;-1.92;100.00;102493.69;5044883;28;19916;-77
2021/12/20 04:38:43;;;;;;;;;;;;;;;-1.67;100.00;102491.59;5043000;28;19922;-77
2021/12/20 04:41:09;;;;;;;;;;;;;;;-1.73;100.00;102489.09;5061303;28;19923;-76
2021/12/20 04:43:34;;;;;;;;;;;;;;;-1.44;100.00;102484.31;5080514;28;19915;-78
2021/12/20 04:46:00;;;;;;;;;;;;;;;-1.62;100.00;102485.50;5064273;28;20127;-78
2021/12/20 04:48:26;;;;;;;;;;;;;;;-1.64;100.00;102486.38;5095589;28;19912;-78
2021/12/20 04:50:51;;;;;;;;;;;;;;;-1.57;100.00;102483.66;5041947;28;19916;-78
2021/12/20 04:53:17;;;;;;;;;;;;;;;-1.58;100.00;102483.72;5090157;28;19912;-77
2021/12/20 04:55:42;;;;;;;;;;;;;;;-1.69;100.00;102476.16;5058025;28;20306;-77
2021/12/20 04:58:08;;;;;;;;;;;;;;;-1.67;100.00;102474.41;5073266;28;19911;-77
2021/12/20 05:00:34;;;;;;;;;;;;;;;-1.32;100.00;102480.66;5057373;28;19965;-78
2021/12/20 05:03:00;;;;;;;;;;;;;;;-1.33;100.00;102485.88;5053343;28;20408;-78
2021/12/20 05:05:28;;;;;;;;;;;;;;;-1.34;100.00;102492.72;5073566;28;19919;-79
2021/12/20 05:07:54;;;;;;;;;;;;;;;-1.32;100.00;102492.69;5058049;28;19919;-77
2021/12/20 05:10:53;;;;;;;;;;;;;;;-1.16;100.00;102490.72;5072219;28;20019;-78
2021/12/20 05:13:12;;;;;;;;;;;;;;;-1.23;100.00;102483.09;5068613;28;19922;-78
2021/12/20 05:15:38;;;;;;;;;;;;;;;-1.43;100.00;102491.19;5090247;28;20448;-77
2021/12/20 05:18:05;;;;;;;;;;;;;;;-1.50;100.00;102493.88;5072348;28;20002;-78
2021/12/20 05:20:31;;;;;;;;;;;;;;;-1.64;100.00;102494.09;5074303;28;19916;-78
2021/12/20 05:22:57;;;;;;;;;;;;;;;-1.76;100.00;102496.00;5058432;28;20445;-78
2021/12/20 05:25:23;;;;;;;;;;;;;;;-1.82;100.00;102496.09;5075203;28;19926;-78
2021/12/20 05:27:49;;;;;;;;;;;;;;;-1.84;100.00;102497.00;5072875;28;19916;-78
2021/12/20 05:30:15;;;;;;;;;;;;;;;-1.83;100.00;102499.56;5071181;28;19983;-78
2021/12/20 05:32:41;;;;;;;;;;;;;;;-1.64;100.00;102491.53;5058067;28;19929;-77
2021/12/20 05:35:07;;;;;;;;;;;;;;;-1.72;100.00;102496.78;5058902;28;19916;-78
2021/12/20 05:37:33;;;;;;;;;;;;;;;-1.80;100.00;102498.66;5061092;28;19919;-77
2021/12/20 05:39:58;;;;;;;;;;;;;;;-1.93;100.00;102504.84;5076689;28;19916;-79
2021/12/20 05:42:25;;;;;;;;;;;;;;;-2.01;100.00;102513.53;5058466;28;19982;-76
2021/12/20 05:44:51;;;;;;;;;;;;;;;-2.07;100.00;102511.06;5058776;28;20604;-78
2021/12/20 05:47:17;;;;;;;;;;;;;;;-1.94;100.00;102516.00;5070042;28;19916;-78
2021/12/20 05:49:43;;;;;;;;;;;;;;;-2.01;100.00;102512.69;5072744;28;19919;-77
2021/12/20 05:52:08;;;;;;;;;;;;;;;-2.12;100.00;102520.53;5050476;28;19916;-77
2021/12/20 05:54:34;;;;;;;;;;;;;;;-2.22;100.00;102517.25;5055902;28;19915;-78
2021/12/20 05:56:59;;;;;;;;;;;;;;;-2.25;100.00;102519.00;5058982;28;19920;-77
2021/12/20 05:59:25;;;;;;;;;;;;;;;-2.31;100.00;102512.22;5053933;28;19916;-78
2021/12/20 06:01:51;;;;;;;;;;;;;;;-2.33;100.00;102520.84;5075275;28;19912;-77
2021/12/20 06:04:16;;;;;;;;;;;;;;;-2.28;100.00;102525.06;5055533;28;19922;-78
2021/12/20 06:06:42;;;;;;;;;;;;;;;-2.36;100.00;102527.69;5074408;28;19920;-78
2021/12/20 06:09:07;;;;;;;;;;;;;;;-2.35;100.00;102521.69;5057038;28;19916;-77
2021/12/20 06:11:33;;;;;;;;;;;;;;;-2.35;100.00;102526.00;5079653;28;19927;-78
2021/12/20 06:13:58;;;;;;;;;;;;;;;-2.36;100.00;102532.84;5063090;28;19923;-78
2021/12/20 06:16:24;;;;;;;;;;;;;;;-2.36;100.00;102532.00;5059813;28;19994;-76
2021/12/20 06:18:51;;;;;;;;;;;;;;;-2.39;100.00;102542.34;5052867;28;19916;-78
2021/12/20 06:21:17;;;;;;;;;;;;;;;-2.42;100.00;102540.63;5053376;28;19912;-77
2021/12/20 06:23:43;;;;;;;;;;;;;;;-2.43;100.00;102535.50;5058240;28;19916;-77
2021/12/20 06:26:08;;;;;;;;;;;;;;;-2.47;100.00;102542.41;5071508;28;19922;-79
2021/12/20 06:28:34;;;;;;;;;;;;;;;-2.48;100.00;102543.28;5070719;28;19912;-79
2021/12/20 06:30:59;;;;;;;;;;;;;;;-2.53;100.00;102536.50;5057295;28;20016;-78
2021/12/20 06:33:25;;;;;;;;;;;;;;;-2.51;100.00;102547.59;5056803;28;19912;-80
2021/12/20 06:35:51;;;;;;;;;;;;;;;-2.49;100.00;102539.00;5057735;28;20483;-78
2021/12/20 06:38:20;;;;;;;;;;;;;;;-2.49;100.00;102539.00;5089114;28;19912;-78
2021/12/20 06:40:46;;;;;;;;;;;;;;;-2.45;100.00;102534.69;5072240;28;19922;-78
2021/12/20 06:43:12;;;;;;;;;;;;;;;-2.55;100.00;102527.06;5073099;28;19929;-79
2021/12/20 06:45:38;;;;;;;;;;;;;;;-2.51;100.00;102534.75;5071490;28;20536;-78
2021/12/20 06:48:04;;;;;;;;;;;;;;;-2.47;100.00;102528.72;5055727;28;19923;-78
2021/12/20 06:50:29;;;;;;;;;;;;;;;-2.53;100.00;102531.34;5068299;28;19946;-77
2021/12/20 06:52:55;;;;;;;;;;;;;;;-2.49;100.00;102546.72;5073714;28;19912;-77
2021/12/20 06:55:20;;;;;;;;;;;;;;;-2.52;100.00;102543.31;5053600;28;19927;-77
2021/12/20 06:57:46;;;;;;;;;;;;;;;-2.56;100.00;102539.97;5055818;28;19923;-80
2021/12/20 07:00:11;;;;;;;;;;;;;;;-2.52;100.00;102533.03;5071911;28;20018;-78
2021/12/20 07:02:37;;;;;;;;;;;;;;;-2.56;100.00;102542.53;5053723;28;19912;-78
2021/12/20 07:05:02;;;;;;;;;;;;;;;-2.52;100.00;102540.75;5038432;28;19932;-78
2021/12/20 07:07:28;;;;;;;;;;;;;;;-2.52;100.00;102549.34;5072939;28;20703;-78
2021/12/20 07:09:54;;;;;;;;;;;;;;;-2.57;100.00;102545.97;5063112;28;19942;-79
2021/12/20 07:12:20;;;;;;;;;;;;;;;-2.51;100.00;102548.44;5055321;28;20297;-78
2021/12/20 07:14:49;;;;;;;;;;;;;;;-2.52;100.00;102551.91;5057134;28;19970;-78
2021/12/20 07:17:14;;;;;;;;;;;;;;;-2.49;100.00;102556.16;5071551;28;19920;-76
2021/12/20 07:19:40;;;;;;;;;;;;;;;-2.49;100.00;102561.28;5055731;28;19969;-78
2021/12/20 07:22:05;;;;;;;;;;;;;;;-2.47;100.00;102564.69;5071563;28;19920;-79
2021/12/20 07:24:31;;;;;;;;;;;;;;;-2.43;100.00;102564.66;5037156;28;19981;-79
2021/12/20 07:26:56;;;;;;;;;;;;;;;-2.44;100.00;102565.50;5086753;28;19920;-78
2021/12/20 07:29:22;;;;;;;;;;;;;;;-2.50;100.00;102568.16;5069924;28;19962;-80
2021/12/20 07:31:48;;;;;;;;;;;;;;;-2.46;100.00;102572.38;5088199;28;19931;-77
2021/12/20 07:34:14;;;;;;;;;;;;;;;-2.50;100.00;102578.44;5054438;28;19912;-79
2021/12/20 07:36:39;;;;;;;;;;;;;;;-2.56;100.00;102578.50;5057019;28;19969;-78
2021/12/20 07:39:05;;;;;;;;;;;;;;;-2.53;100.00;102572.47;5055491;28;19915;-77
2021/12/20 07:41:31;;;;;;;;;;;;;;;-2.59;100.00;102579.38;5040778;28;19934;-79
2021/12/20 07:43:56;;;;;;;;;;;;;;;-2.63;100.00;102576.88;5072767;28;19916;-78
2021/12/20 07:46:22;;;;;;;;;;;;;;;-2.53;100.00;102582.75;5057222;28;19920;-78
2021/12/20 07:48:49;;;;;;;;;;;;;;;-2.54;100.00;102584.47;5058565;28;19923;-78
2021/12/20 07:51:14;;;;;;;;;;;;;;;-2.51;100.00;102586.16;5056283;28;19959;-77
2021/12/20 07:53:41;;;;;;;;;;;;;;;-2.45;100.00;102586.94;5044439;28;19961;-78
2021/12/20 07:56:07;;;;;;;;;;;;;;;-2.45;100.00;102586.94;5069064;28;19919;-79
2021/12/20 07:58:32;;;;;;;;;;;;;;;-2.45;100.00;102583.50;5071993;28;19923;-77
2021/12/20 08:00:58;;;;;;;;;;;;;;;-2.46;100.00;102581.81;5060859;28;19916;-78
2021/12/20 08:03:24;;;;;;;;;;;;;;;-2.42;100.00;102594.59;5075216;28;19967;-79
2021/12/20 08:05:50;;;;;;;;;;;;;;;-2.35;100.00;102591.09;5059509;28;19916;-79
2021/12/20 08:08:16;;;;;;;;;;;;;;;-2.32;100.00;102591.94;5093360;28;20028;-77
2021/12/20 08:10:41;;;;;;;;;;;;;;;-2.21;100.00;102597.78;5076357;28;20690;-77
2021/12/20 08:13:08;;;;;;;;;;;;;;;-2.21;100.00;102592.66;5060053;28;20396;-78
2021/12/20 08:15:33;;;;;;;;;;;;;;;-2.18;100.00;102596.03;5075254;28;19920;-77
2021/12/20 08:17:59;;;;;;;;;;;;;;;-2.20;100.00;102590.06;5060144;28;19919;-79
2021/12/20 08:20:24;;;;;;;;;;;;;;;-2.11;100.00;102601.97;5075088;28;19915;-78
2021/12/20 08:22:50;;;;;;;;;;;;;;;-2.17;100.00;102602.03;5076422;28;19941;-78
2021/12/20 08:25:16;;;;;;;;;;;;;;;-2.17;100.00;102599.44;5056107;28;19977;-79
2021/12/20 08:27:42;;;;;;;;;;;;;;;-2.13;100.00;102598.53;5059906;28;19965;-77
2021/12/20 08:30:08;;;;;;;;;;;;;;;-2.10;100.00;102595.94;5041172;28;19958;-78
2021/12/20 08:32:36;;;;;;;;;;;;;;;-1.98;100.00;102602.63;5090943;28;20442;-77
2021/12/20 08:35:02;;;;;;;;;;;;;;;-1.96;100.00;102603.47;5071986;28;20310;-78
2021/12/20 08:37:28;;;;;;;;;;;;;;;-1.93;100.00;102606.00;5075671;28;19919;-79
2021/12/20 08:39:53;;;;;;;;;;;;;;;-1.81;100.00;102605.84;5071112;28;20011;-79
2021/12/20 08:42:19;;;;;;;;;;;;;;;-1.77;100.00;102607.50;5090695;28;20527;-78
2021/12/20 08:44:44;;;;;;;;;;;;;;;-1.76;100.00;102610.91;5040902;28;19924;-77
2021/12/20 08:47:10;;;;;;;;;;;;;;;-1.71;100.00;102613.41;5074158;28;19917;-78
2021/12/20 08:49:35;;;;;;;;;;;;;;;-1.63;100.00;102609.03;5077433;28;20056;-77
2021/12/20 08:52:01;;;;;;;;;;;;;;;-1.54;100.00;102602.88;5060831;28;19959;-78
2021/12/20 08:54:29;;;;;;;;;;;;;;;-1.57;100.00;102607.19;5055692;28;19948;-79
2021/12/20 08:56:55;;;;;;;;;;;;;;;-1.55;100.00;102614.06;5044140;28;19927;-77
2021/12/20 08:59:20;;;;;;;;;;;;;;;-1.34;100.00;102621.44;5040781;28;19919;-77
2021/12/20 09:01:46;;;;;;;;;;;;;;;-1.33;100.00;102619.75;5054118;28;20293;-78
2021/12/20 09:04:12;;;;;;;;;;;;;;;-1.15;100.00;102626.31;5054195;28;20400;-79
2021/12/20 09:06:42;;;;;;;;;;;;;;;-0.93;100.00;102619.94;5061275;28;19916;-79
2021/12/20 09:09:08;;;;;;;;;;;;;;;-1.02;100.00;102625.25;5076492;28;20387;-78
2021/12/20 09:11:34;;;;;;;;;;;;;;;-0.89;100.00;102628.47;5077225;28;19963;-77
2021/12/20 09:13:59;;;;;;;;;;;;;;;-0.73;100.00;102626.47;5062917;28;19911;-78
2021/12/20 09:16:25;;;;;;;;;;;;;;;-0.76;100.00;102629.94;5038963;28;20286;-78
2021/12/20 09:18:50;;;;;;;;;;;;;;;-0.75;100.00;102633.38;5040878;28;19916;-78
2021/12/20 09:21:16;;;;;;;;;;;;;;;-0.50;100.00;102633.78;5071752;28;20532;-76
2021/12/20 09:23:42;;;;;;;;;;;;;;;-0.39;100.00;102634.44;5054514;28;19920;-78
2021/12/20 09:26:08;;;;;;;;;;;;;;;-0.30;100.00;102630.81;5056382;28;19912;-78
2021/12/20 09:28:34;;;;;;;;;;;;;;;-0.26;100.00;102635.91;5087816;28;19920;-77
2021/12/20 09:31:00;;;;;;;;;;;;;;;-0.01;100.00;102641.41;5072461;28;19997;-78
2021/12/20 09:33:25;;;;;;;;;;;;;;;-0.05;100.00;102639.78;5038634;28;19908;-76
2021/12/20 09:35:53;;;;;;;;;;;;;;;0.07;100.00;102646.41;5067753;28;19990;-77
2021/12/20 09:38:19;;;;;;;;;;;;;;;0.26;99.57;102646.84;5084133;28;19938;-77
2021/12/20 09:41:13;;;;;;;;;;;;;;;0.26;100.00;102648.59;5052467;28;19916;-77
2021/12/20 09:43:32;;;;;;;;;;;;;;;0.22;100.00;102644.38;5087553;28;19923;-77
2021/12/20 09:45:57;;;;;;;;;;;;;;;0.17;100.00;102629.84;5071821;28;19916;-77
2021/12/20 09:48:23;;;;;;;;;;;;;;;0.15;100.00;102641.06;5071035;28;20740;-77
2021/12/20 09:50:49;;;;;;;;;;;;;;;0.27;100.00;102638.25;5085305;28;19916;-77
2021/12/20 09:53:14;;;;;;;;;;;;;;;0.33;100.00;102635.53;5070276;28;20027;-77
2021/12/20 09:55:43;;;;;;;;;;;;;;;0.35;100.00;102643.22;5070491;28;19970;-77
2021/12/20 09:58:09;;;;;;;;;;;;;;;0.36;100.00;102640.63;5068633;28;19938;-78
2021/12/20 10:00:34;;;;;;;;;;;;;;;0.65;98.90;102648.59;5070167;28;20369;-77
2021/12/20 10:03:00;;;;;;;;;;;;;;;0.60;100.00;102651.25;5072098;28;19923;-77
2021/12/20 10:05:26;;;;;;;;;;;;;;;0.68;98.48;102648.50;5070260;28;19935;-77
2021/12/20 10:07:53;;;;;;;;;;;;;;;0.76;97.36;102646.59;5067951;28;20385;-77
2021/12/20 10:10:37;;;;;;;;;;;;;;;0.71;98.75;102653.59;5069079;28;19955;-77
2021/12/20 10:13:02;;;;;;;;;;;;;;;0.80;98.25;102655.13;5071787;28;19916;-77
2021/12/20 10:15:33;;;;;;;;;;;;;;;0.75;100.00;102645.78;5053997;28;19920;-78
2021/12/20 10:17:59;;;;;;;;;;;;;;;0.71;100.00;102646.69;5070775;28;19967;-78
2021/12/20 10:20:29;;;;;;;;;;;;;;;0.73;100.00;102652.69;5069492;28;19923;-77
2021/12/20 10:23:07;;;;;;;;;;;;;;;0.88;99.31;102669.56;5070567;28;19958;-76
2021/12/20 10:25:32;;;;;;;;;;;;;;;0.87;99.31;102664.44;5068703;28;19916;-76
2021/12/20 10:28:06;;;;;;;;;;;;;;;0.92;100.00;102670.34;5071392;28;20324;-78
2021/12/20 10:30:33;;;;;;;;;;;;;;;1.00;97.63;102667.56;5050413;28;19923;-77
2021/12/20 10:32:59;;;;;;;;;;;;;;;1.01;98.46;102664.94;5055125;28;20480;-77
2021/12/20 10:35:25;;;;;;;;;;;;;;;1.03;99.48;102672.66;5035751;28;19923;-77
2021/12/20 10:37:50;;;;;;;;;;;;;;;1.08;100.00;102669.09;5069174;28;19920;-77
2021/12/20 10:40:16;;;;;;;;;;;;;;;1.12;99.23;102673.28;5081488;28;19916;-78
2021/12/20 10:42:41;;;;;;;;;;;;;;;1.14;99.86;102666.34;5038157;28;20393;-77
2021/12/20 10:45:15;;;;;;;;;;;;;;;1.27;99.54;102663.47;5070975;28;19916;-77
2021/12/20 10:47:41;;;;;;;;;;;;;;;1.37;97.18;102662.31;5061936;28;19912;-78
2021/12/20 10:50:18;;;;;;;;;;;;;;;1.46;95.16;102671.59;5054409;28;20409;-77
2021/12/20 10:52:44;;;;;;;;;;;;;;;1.47;94.76;102678.44;5052520;28;19920;-77
2021/12/20 10:55:11;;;;;;;;;;;;;;;1.57;94.15;102677.31;5091251;28;19969;-76
2021/12/20 10:57:37;;;;;;;;;;;;;;;1.60;93.62;102681.56;5056375;28;19931;-78
2021/12/20 11:00:22;;;;;;;;;;;;;;;1.62;95.75;102690.13;5072218;28;19920;-76
2021/12/20 11:03:25;;;;;;;;;;;;;;;1.72;91.07;102682.06;5073376;28;19961;-77
2021/12/20 11:11:30;;;;;;;;;;;;;;;1.73;93.12;102673.44;5069551;28;19931;-75
2021/12/20 11:13:57;;;;;;;;;;;;;;;1.82;92.76;102671.47;5055017;28;20298;-77
2021/12/20 11:16:26;;;;;;;;;;;;;;;1.99;91.08;102671.00;5054049;28;19931;-78
2021/12/20 11:19:08;;;;;;;;;;;;;;;2.02;91.77;102669.19;5069927;28;19923;-78
2021/12/20 11:21:38;;;;;;;;;;;;;;;2.00;91.12;102675.28;5070028;28;19920;-76
2021/12/20 11:24:11;;;;;;;;;;;;;;;2.01;92.04;102677.81;5052857;28;19935;-78
2021/12/20 11:26:38;;;;;;;;;;;;;;;1.97;93.48;102677.97;5067402;28;19924;-78
2021/12/20 11:29:03;;;;;;;;;;;;;;;1.98;93.51;102671.88;5055027;28;19915;-77
2021/12/20 11:31:28;;;;;;;;;;;;;;;2.04;91.07;102675.16;5087726;28;19922;-77
2021/12/20 11:33:54;;;;;;;;;;;;;;;2.14;89.63;102683.50;5066127;28;19922;-77
2021/12/20 11:36:20;;;;;;;;;;;;;;;2.21;87.86;102679.00;5058443;28;20012;-77
2021/12/20 11:38:46;;;;;;;;;;;;;;;2.25;88.01;102683.19;5059363;28;19945;-77
2021/12/20 11:41:12;;;;;;;;;;;;;;;2.25;88.36;102681.44;5073015;28;19943;-77
2021/12/20 11:43:38;;;;;;;;;;;;;;;2.36;88.68;102675.13;5067320;28;19913;-77
2021/12/20 11:46:06;;;;;;;;;;;;;;;2.36;89.18;102669.94;5054364;28;20035;-77
2021/12/20 11:48:32;;;;;;;;;;;;;;;2.38;89.89;102660.38;5073200;28;20298;-78
2021/12/20 11:50:59;;;;;;;;;;;;;;;2.48;90.57;102665.22;5040462;28;19920;-78
2021/12/20 11:53:24;;;;;;;;;;;;;;;2.55;88.91;102665.06;5072210;28;19912;-77
2021/12/20 11:55:51;;;;;;;;;;;;;;;2.52;88.44;102671.16;5054253;28;19922;-77
2021/12/20 11:58:18;;;;;;;;;;;;;;;2.49;89.73;102672.09;5070666;28;19911;-77
2021/12/20 12:00:48;;;;;;;;;;;;;;;2.54;87.53;102669.34;5067547;28;19912;-77
2021/12/20 12:03:22;;;;;;;;;;;;;;;2.58;88.62;102665.81;5053346;28;19951;-77
2021/12/20 12:05:52;;;;;;;;;;;;;;;2.56;89.21;102664.97;5038567;28;20366;-77
2021/12/20 12:08:20;;;;;;;;;;;;;;;2.57;90.14;102671.88;5090786;28;20417;-77
2021/12/20 12:10:45;;;;;;;;;;;;;;;2.55;89.58;102665.88;5089474;28;19958;-78
2021/12/20 12:13:15;;;;;;;;;;;;;;;2.60;87.43;102668.31;5069251;28;20029;-77
2021/12/20 12:15:59;;;;;;;;;;;;;;;2.66;87.78;102658.63;5056126;28;19916;-77
2021/12/20 12:18:41;;;;;;;;;;;;;;;2.70;88.68;102660.22;5071769;28;19920;-78
2021/12/20 12:21:07;;;;;;;;;;;;;;;2.77;89.73;102660.03;5051714;28;19956;-77
2021/12/20 12:23:42;;;;;;;;;;;;;;;2.79;88.36;102655.63;5070629;28;19970;-77
2021/12/20 12:26:09;;;;;;;;;;;;;;;2.80;88.08;102658.19;5087841;28;20010;-78
2021/12/20 12:28:57;;;;;;;;;;;;;;;2.78;88.22;102661.72;5070628;28;19912;-78
2021/12/20 12:31:23;;;;;;;;;;;;;;;2.85;88.01;102665.81;5070865;28;19920;-78
2021/12/20 12:34:04;;;;;;;;;;;;;;;2.82;89.46;102663.31;5071478;28;22709;-78
2021/12/20 12:36:32;;;;;;;;;;;;;;;2.83;88.02;102667.63;5069709;28;19916;-77
2021/12/20 12:38:59;;;;;;;;;;;;;;;2.83;88.63;102665.03;5076456;28;20420;-77
2021/12/20 12:41:29;;;;;;;;;;;;;;;2.85;89.27;102663.22;5080109;28;19923;-77
2021/12/20 12:43:59;;;;;;;;;;;;;;;2.96;88.97;102660.28;5058631;28;19939;-78
2021/12/20 12:46:43;;;;;;;;;;;;;;;2.84;90.77;102664.13;5065376;28;19916;-78
2021/12/20 12:49:21;;;;;;;;;;;;;;;2.86;88.67;102660.59;5082195;28;19942;-79